Vista de Guaynabo, Puerto Rico
Current Conditions -  °F | °C
As of 2:56 PM on Sunday 21 Dec 2014 (Local Time) from TJSJ Reporting Station
Scattered Clouds Scattered Clouds  
Wind Chill: 28°   Ceiling: Unl
Heat Index: 30°   Visibility: 10mi
Dew Point: 20°   Wind: 16mph
Humidity: 60%   Direction: 60°ENE
Pressure: 30.03"   Gusts: NA
Location:  18.3866°N, 66.1135°W
Report Text: TJSJ 211856Z 06014KT 10SM FEW026 SCT060 28/20 A3003 RMK AO2 SLP167 T02830200
Loading
Personal Weather Stations






























Interactive Weather Map New forecast layout! Learn more

10-Day Weather Forecast

Advertisements
Track Severe Weather on mobile